Time;durP1;ratioP1;P1;durP2;ratioP2;P2;SDS_P1;SDS_P2;PMS_P1;PMS_P2;Temp;Humidity;BMP_temperature;BMP_pressure;BME280_temperature;BME280_humidity;BME280_pressure;Samples;Min_cycle;Max_cycle;Signal;HPM_P1;HPM_P2
2023/07/12 00:00:48;;;;;;;8.98;4.07;;;;;;;25.27;59.11;100077.47;5056897;28;20032;-74
2023/07/12 00:03:15;;;;;;;11.63;4.10;;;;;;;25.24;59.25;100081.22;5057011;28;21394;-75
2023/07/12 00:05:42;;;;;;;13.82;4.03;;;;;;;25.18;59.07;100082.50;5056738;28;20066;-74
2023/07/12 00:08:25;;;;;;;10.25;4.22;;;;;;;25.13;59.88;100092.72;5057356;28;20048;-74
2023/07/12 00:10:53;;;;;;;12.97;4.23;;;;;;;25.10;59.47;100081.31;5059432;28;20043;-74
2023/07/12 00:13:19;;;;;;;15.55;4.80;;;;;;;25.03;59.60;100086.25;5056901;28;20028;-74
2023/07/12 00:15:46;;;;;;;13.20;4.68;;;;;;;24.99;60.13;100079.34;5056847;28;20384;-74
2023/07/12 00:18:16;;;;;;;10.90;4.18;;;;;;;24.97;59.82;100075.91;5063296;28;20032;-75
2023/07/12 00:20:43;;;;;;;12.97;4.03;;;;;;;24.97;59.99;100075.91;5056976;28;20489;-74
2023/07/12 00:23:18;;;;;;;13.63;3.95;;;;;;;24.93;60.06;100070.69;5056927;28;20070;-74
2023/07/12 00:25:46;;;;;;;12.40;4.32;;;;;;;24.89;60.48;100069.19;5053967;28;20017;-75
2023/07/12 00:28:27;;;;;;;9.65;4.10;;;;;;;24.79;60.44;100071.63;5057039;28;20021;-74
2023/07/12 00:30:55;;;;;;;11.52;4.22;;;;;;;24.73;60.78;100063.94;5055328;28;20036;-75
2023/07/12 00:33:21;;;;;;;8.77;4.50;;;;;;;24.68;61.16;100059.81;5056591;28;20428;-74
2023/07/12 00:35:48;;;;;;;13.80;4.88;;;;;;;24.62;60.95;100061.97;5056647;28;20021;-74
2023/07/12 00:38:22;;;;;;;11.98;4.30;;;;;;;24.58;61.44;100059.56;5056744;28;20562;-74
2023/07/12 00:41:05;;;;;;;13.90;4.82;;;;;;;24.47;62.33;100062.97;5056719;28;20031;-74
2023/07/12 00:43:41;;;;;;;14.47;4.23;;;;;;;24.45;61.76;100064.88;5056691;28;20043;-75
2023/07/12 00:46:29;;;;;;;13.07;4.82;;;;;;;24.45;61.88;100065.78;5056670;28;20381;-74
2023/07/12 00:48:54;;;;;;;11.38;4.25;;;;;;;24.45;61.82;100060.38;5044916;28;20036;-74
2023/07/12 00:51:36;;;;;;;12.87;4.63;;;;;;;24.43;61.60;100056.06;5056751;28;20493;-75
2023/07/12 00:54:12;;;;;;;11.77;4.82;;;;;;;24.34;62.56;100058.41;5055187;28;20029;-74
2023/07/12 00:56:38;;;;;;;11.75;4.50;;;;;;;24.31;62.23;100061.28;5056297;28;20029;-74
2023/07/12 00:59:11;;;;;;;9.50;4.50;;;;;;;24.30;62.64;100062.25;5056921;28;20029;-74
2023/07/12 01:01:37;;;;;;;13.90;4.70;;;;;;;24.28;62.54;100053.44;5056338;28;20541;-74
2023/07/12 01:04:04;;;;;;;10.50;4.40;;;;;;;24.25;62.73;100056.31;5056438;28;20408;-75
2023/07/12 01:06:30;;;;;;;13.30;4.90;;;;;;;24.21;62.81;100057.44;5056332;28;20051;-74
2023/07/12 01:09:01;;;;;;;12.20;4.73;;;;;;;24.17;62.75;100053.25;5056471;28;20021;-74
2023/07/12 01:11:28;;;;;;;12.07;4.88;;;;;;;24.15;62.97;100041.72;5065457;28;20032;-75
2023/07/12 01:13:54;;;;;;;11.05;4.65;;;;;;;24.13;63.25;100036.47;5056322;28;20104;-74
2023/07/12 01:16:22;;;;;;;10.50;4.85;;;;;;;24.12;62.92;100042.78;5057218;28;20820;-74
2023/07/12 01:18:48;;;;;;;12.38;4.90;;;;;;;24.08;63.08;100038.56;5064533;28;20029;-74
2023/07/12 01:21:18;;;;;;;13.10;4.60;;;;;;;24.04;63.27;100035.22;5060216;28;20396;-74
2023/07/12 01:23:44;;;;;;;12.55;4.75;;;;;;;24.05;63.62;100038.75;5060166;28;20024;-74
2023/07/12 01:26:26;;;;;;;18.17;5.13;;;;;;;24.02;63.38;100036.25;5060314;28;20098;-74
2023/07/12 01:28:57;;;;;;;10.95;4.70;;;;;;;24.01;63.59;100043.50;5060259;28;20481;-74
2023/07/12 01:31:24;;;;;;;9.93;4.20;;;;;;;24.06;63.09;100049.44;5059885;28;20121;-75
2023/07/12 01:33:50;;;;;;;10.45;4.18;;;;;;;24.12;63.16;100047.31;5060019;28;20094;-74
2023/07/12 01:36:16;;;;;;;13.98;4.35;;;;;;;24.15;63.32;100041.72;5060188;28;20505;-75
2023/07/12 01:38:42;;;;;;;11.82;4.38;;;;;;;24.13;63.39;100040.97;5060061;28;20089;-75
2023/07/12 01:41:08;;;;;;;12.43;4.73;;;;;;;24.04;63.46;100045.97;5060055;28;20021;-75
2023/07/12 01:43:34;;;;;;;12.75;4.10;;;;;;;24.04;63.75;100039.72;5060026;28;20099;-74
2023/07/12 01:45:59;;;;;;;10.70;3.87;;;;;;;24.05;63.37;100039.63;5060052;28;20029;-75
2023/07/12 01:48:24;;;;;;;12.00;4.55;;;;;;;24.02;63.57;100042.53;5059696;28;20033;-74
2023/07/12 01:50:50;;;;;;;13.83;5.10;;;;;;;24.02;63.48;100042.53;5060061;28;20033;-75
2023/07/12 01:53:15;;;;;;;9.27;3.93;;;;;;;23.98;63.76;100051.69;5059760;28;20029;-75
2023/07/12 01:55:44;;;;;;;8.23;3.87;;;;;;;23.98;63.67;100046.31;5059576;28;20044;-74
2023/07/12 01:58:10;;;;;;;12.48;4.07;;;;;;;24.00;63.65;100049.81;5059501;28;20021;-74
2023/07/12 02:00:35;;;;;;;11.30;4.22;;;;;;;24.00;63.28;100041.72;5059906;28;20104;-74
2023/07/12 02:03:01;;;;;;;12.80;3.90;;;;;;;23.95;63.39;100046.50;5058163;28;20109;-75
2023/07/12 02:05:27;;;;;;;12.50;4.50;;;;;;;23.89;63.83;100042.41;5059554;28;20016;-75
2023/07/12 02:07:56;;;;;;;14.27;4.30;;;;;;;23.82;64.06;100050.97;5058127;28;20675;-75
2023/07/12 02:10:21;;;;;;;11.30;4.13;;;;;;;23.73;63.71;100038.97;5065419;28;20017;-75
2023/07/12 02:15:31;;;;;;;11.03;3.67;;;;;;;23.71;63.92;100041.72;5059469;28;20048;-74
2023/07/12 02:17:57;;;;;;;10.43;3.83;;;;;;;23.70;64.10;100034.63;5065437;28;20029;-73
2023/07/12 02:23:08;;;;;;;11.80;3.70;;;;;;;23.58;64.21;100028.19;5059469;28;20251;-74
2023/07/12 02:25:34;;;;;;;8.15;3.58;;;;;;;23.61;64.08;100032.53;5058810;28;20021;-74
2023/07/12 02:27:59;;;;;;;8.70;3.58;;;;;;;23.62;63.98;100031.56;5058961;28;20029;-74
2023/07/12 02:30:28;;;;;;;6.73;3.37;;;;;;;23.64;63.91;100027.84;5059071;28;20024;-74
2023/07/12 02:32:54;;;;;;;8.75;3.28;;;;;;;23.63;64.01;100027.91;5058825;28;20485;-74
2023/07/12 02:35:22;;;;;;;8.80;3.50;;;;;;;23.58;63.95;100025.50;5058942;28;20033;-74
2023/07/12 02:37:48;;;;;;;9.80;3.17;;;;;;;23.55;63.91;100032.91;5059051;28;20021;-74
2023/07/12 02:40:15;;;;;;;9.30;3.60;;;;;;;23.51;64.07;100027.75;5058720;28;20079;-74
2023/07/12 02:42:40;;;;;;;12.45;3.25;;;;;;;23.48;63.88;100033.28;5058997;28;20021;-74
2023/07/12 02:45:07;;;;;;;10.13;3.40;;;;;;;23.42;64.14;100032.81;5058664;28;20067;-74
2023/07/12 02:47:33;;;;;;;9.13;3.05;;;;;;;23.40;64.22;100034.75;5058636;28;20024;-74
2023/07/12 02:49:58;;;;;;;9.82;3.30;;;;;;;23.37;64.59;100030.41;5057660;28;20040;-74
2023/07/12 02:52:24;;;;;;;8.93;2.93;;;;;;;23.37;64.42;100030.41;5058823;28;20044;-74
2023/07/12 02:54:49;;;;;;;10.27;3.80;;;;;;;23.37;64.66;100030.41;5058382;28;20075;-74
2023/07/12 02:57:15;;;;;;;11.13;3.50;;;;;;;23.32;64.81;100032.53;5058461;28;20025;-74
2023/07/12 02:59:41;;;;;;;9.75;3.10;;;;;;;23.30;64.68;100029.06;5058807;28;20056;-74
2023/07/12 03:02:08;;;;;;;7.63;3.13;;;;;;;23.30;64.72;100039.81;5057295;28;20033;-74
2023/07/12 03:04:34;;;;;;;8.10;3.10;;;;;;;23.28;64.60;100036.34;5058219;28;20124;-74
2023/07/12 03:07:00;;;;;;;10.07;3.20;;;;;;;23.30;64.37;100034.44;5058611;28;20082;-74
2023/07/12 03:09:25;;;;;;;7.97;3.00;;;;;;;23.26;64.65;100039.13;5058329;28;20032;-74
2023/07/12 03:11:50;;;;;;;9.75;2.90;;;;;;;23.26;64.65;100036.44;5067660;28;20100;-74
2023/07/12 03:14:18;;;;;;;13.17;3.90;;;;;;;23.22;64.81;100048.28;5058369;28;20043;-75
2023/07/12 03:16:43;;;;;;;9.13;3.00;;;;;;;23.20;64.70;100037.63;5062525;28;20025;-74
2023/07/12 03:19:09;;;;;;;8.40;2.90;;;;;;;23.25;64.86;100047.22;5059656;28;20021;-74
2023/07/12 03:21:35;;;;;;;9.93;3.22;;;;;;;23.25;64.65;100048.13;5057010;28;20025;-74
2023/07/12 03:24:00;;;;;;;11.03;3.40;;;;;;;23.23;64.60;100050.88;5057869;28;20044;-74
2023/07/12 03:26:26;;;;;;;8.90;3.45;;;;;;;23.23;64.86;100048.19;5058047;28;20528;-73
2023/07/12 03:28:51;;;;;;;12.63;3.40;;;;;;;23.21;64.88;100050.09;5058231;28;20611;-74
2023/07/12 03:31:17;;;;;;;9.97;3.10;;;;;;;23.19;64.67;100043.97;5057978;28;20029;-74
2023/07/12 03:33:45;;;;;;;8.20;3.20;;;;;;;23.17;65.03;100043.19;5057682;28;20033;-74
2023/07/12 03:36:11;;;;;;;9.70;2.55;;;;;;;23.12;64.94;100045.31;5056597;28;20033;-74
2023/07/12 03:38:37;;;;;;;10.07;2.57;;;;;;;23.10;65.01;100049.91;5057741;28;20025;-73
2023/07/12 03:41:05;;;;;;;9.93;3.13;;;;;;;23.05;65.10;100050.16;5055723;28;20401;-74
2023/07/12 03:43:31;;;;;;;8.80;2.57;;;;;;;23.11;65.06;100057.00;5057734;28;20032;-74
2023/07/12 03:45:57;;;;;;;9.52;2.67;;;;;;;23.08;65.27;100051.81;5056485;28;20029;-73
2023/07/12 03:48:23;;;;;;;7.30;3.05;;;;;;;22.99;65.10;100046.97;5057444;28;20021;-73
2023/07/12 03:50:50;;;;;;;8.07;3.00;;;;;;;22.96;65.41;100049.84;5056335;28;20048;-75
2023/07/12 03:53:17;;;;;;;9.25;2.80;;;;;;;22.93;65.47;100045.53;5057492;28;20599;-74
2023/07/12 03:55:44;;;;;;;10.52;2.85;;;;;;;22.91;65.44;100034.88;5057272;28;20044;-74
2023/07/12 03:58:12;;;;;;;6.07;2.60;;;;;;;22.97;65.43;100039.03;5057174;28;20438;-74
2023/07/12 04:00:43;;;;;;;8.67;2.60;;;;;;;23.02;65.37;100036.06;5057513;28;20036;-74
2023/07/12 04:03:10;;;;;;;8.27;2.42;;;;;;;23.03;65.15;100037.78;5057611;28;20043;-74
2023/07/12 04:05:40;;;;;;;7.93;2.60;;;;;;;23.07;64.69;100036.66;5057611;28;20033;-74
2023/07/12 04:08:07;;;;;;;7.65;2.92;;;;;;;23.09;65.00;100026.69;5057661;28;20114;-74
2023/07/12 04:10:33;;;;;;;14.77;2.95;;;;;;;23.08;64.99;100035.72;5064975;28;20016;-74
2023/07/12 04:13:00;;;;;;;6.90;2.53;;;;;;;23.09;64.90;100040.13;5058620;28;20116;-74
2023/07/12 04:15:25;;;;;;;10.40;3.20;;;;;;;23.11;64.71;100038.19;5057172;28;20504;-74
2023/07/12 04:17:51;;;;;;;9.13;2.88;;;;;;;23.04;65.21;100040.38;5063310;28;20021;-74
2023/07/12 04:20:16;;;;;;;8.33;2.33;;;;;;;22.98;65.39;100035.38;5057095;28;20020;-74
2023/07/12 04:22:42;;;;;;;11.33;2.67;;;;;;;22.96;65.51;100044.47;5055689;28;20036;-74
2023/07/12 04:25:08;;;;;;;9.93;2.33;;;;;;;22.95;65.52;100038.25;5056180;28;20027;-74
2023/07/12 04:27:38;;;;;;;10.48;2.65;;;;;;;22.94;65.64;100040.06;5055999;28;20083;-73
2023/07/12 04:30:06;;;;;;;11.00;2.90;;;;;;;22.95;65.27;100035.56;5057116;28;20541;-74
2023/07/12 04:32:31;;;;;;;7.22;2.28;;;;;;;22.99;65.36;100039.81;5055536;28;20025;-74
2023/07/12 04:34:57;;;;;;;9.33;2.47;;;;;;;22.94;65.51;100045.44;5057171;28;20036;-74
2023/07/12 04:37:22;;;;;;;6.57;2.40;;;;;;;22.95;65.34;100049.00;5056938;28;20056;-74
2023/07/12 04:39:48;;;;;;;8.35;2.90;;;;;;;22.94;65.61;100045.44;5055711;28;20401;-74
2023/07/12 04:42:13;;;;;;;10.23;2.60;;;;;;;22.96;65.44;100053.41;5056765;28;20064;-74
2023/07/12 04:44:39;;;;;;;8.48;2.90;;;;;;;22.96;65.35;100044.47;5055491;28;20154;-74
2023/07/12 04:47:06;;;;;;;7.97;2.60;;;;;;;22.96;65.45;100049.84;5056785;28;20049;-74
2023/07/12 04:49:31;;;;;;;9.00;2.55;;;;;;;22.97;65.42;100043.53;5056599;28;20033;-74
2023/07/12 04:51:57;;;;;;;7.53;2.43;;;;;;;22.97;65.50;100043.53;5056477;28;20100;-74
2023/07/12 04:54:22;;;;;;;9.60;2.73;;;;;;;23.04;64.87;100045.75;5056765;28;20021;-74
2023/07/12 04:56:48;;;;;;;9.37;2.60;;;;;;;23.10;64.99;100044.53;5056338;28;20041;-74
2023/07/12 04:59:15;;;;;;;8.50;2.50;;;;;;;23.10;65.16;100044.53;5056792;28;20597;-74
2023/07/12 05:01:40;;;;;;;7.95;2.45;;;;;;;23.06;65.27;100049.22;5056530;28;20103;-74
2023/07/12 05:04:06;;;;;;;6.17;2.43;;;;;;;23.04;65.38;100044.91;5055243;28;20057;-74
2023/07/12 05:06:31;;;;;;;7.33;2.33;;;;;;;23.04;65.20;100039.53;5056567;28;20051;-74
2023/07/12 05:08:56;;;;;;;8.40;2.60;;;;;;;23.07;65.34;100040.19;5056913;28;20060;-74
2023/07/12 05:11:22;;;;;;;10.73;2.30;;;;;;;23.04;65.44;100040.38;5065633;28;20130;-74
2023/07/12 05:13:48;;;;;;;6.87;2.27;;;;;;;23.07;65.27;100044.72;5056738;28;20264;-74
2023/07/12 05:16:13;;;;;;;8.73;2.40;;;;;;;23.11;65.26;100040.88;5051375;28;20029;-74
2023/07/12 05:18:38;;;;;;;11.13;2.47;;;;;;;23.17;65.06;100039.66;5062475;28;20035;-74
2023/07/12 05:21:04;;;;;;;6.15;2.38;;;;;;;23.19;65.25;100049.34;5055134;28;20017;-74
2023/07/12 05:23:29;;;;;;;10.20;2.23;;;;;;;23.14;65.27;100050.56;5056357;28;20033;-74
2023/07/12 05:25:55;;;;;;;8.67;2.70;;;;;;;23.04;65.40;100050.28;5038513;28;20032;-74
2023/07/12 05:28:21;;;;;;;10.85;2.60;;;;;;;23.02;65.45;100057.53;5036416;28;20048;-75
2023/07/12 05:30:48;;;;;;;8.37;2.40;;;;;;;23.02;65.51;100052.16;5036315;28;20087;-74
2023/07/12 05:33:13;;;;;;;7.97;2.53;;;;;;;23.00;65.43;100049.59;5036400;28;20428;-74
2023/07/12 05:35:39;;;;;;;9.85;2.42;;;;;;;22.99;65.37;100046.97;5038517;28;20033;-74
2023/07/12 05:38:04;;;;;;;9.73;2.43;;;;;;;23.00;65.55;100049.59;5035025;28;20021;-74
2023/07/12 05:40:30;;;;;;;9.00;2.37;;;;;;;22.97;65.33;100047.09;5042066;28;20387;-74
2023/07/12 05:42:56;;;;;;;8.33;2.70;;;;;;;22.95;65.51;100049.00;5041894;28;20771;-73
2023/07/12 05:45:21;;;;;;;9.13;2.90;;;;;;;22.91;65.55;100056.38;5049867;28;20082;-73
2023/07/12 05:47:47;;;;;;;8.50;2.55;;;;;;;22.88;65.58;100048.50;5034804;28;20029;-74
2023/07/12 05:50:15;;;;;;;8.03;2.60;;;;;;;22.86;65.74;100047.72;5036354;28;20021;-73
2023/07/12 05:52:41;;;;;;;7.28;2.53;;;;;;;22.86;65.91;100047.72;5036336;28;20030;-73
2023/07/12 05:55:08;;;;;;;7.82;2.60;;;;;;;22.92;65.54;100052.72;5040453;28;20417;-74
2023/07/12 05:57:34;;;;;;;9.30;2.43;;;;;;;23.01;65.52;100061.19;5052989;28;20029;-74
2023/07/12 06:00:00;;;;;;;6.85;2.70;;;;;;;23.02;65.38;100054.84;5038317;28;20030;-74
2023/07/12 06:02:26;;;;;;;7.47;2.97;;;;;;;23.08;65.16;100057.19;5036193;28;20052;-74
2023/07/12 06:04:52;;;;;;;7.63;2.30;;;;;;;23.16;65.20;100060.28;5038197;28;20029;-74
2023/07/12 06:07:17;;;;;;;9.65;2.83;;;;;;;23.23;65.03;100055.41;5050442;28;20028;-74
2023/07/12 06:09:43;;;;;;;8.87;2.50;;;;;;;23.27;64.71;100067.72;5046962;28;20033;-74
2023/07/12 06:12:09;;;;;;;7.93;2.30;;;;;;;23.30;64.56;100062.16;5064178;28;20143;-75
2023/07/12 06:14:35;;;;;;;6.60;2.40;;;;;;;23.30;64.53;100058.63;5059510;28;20055;-76
2023/07/12 06:17:00;;;;;;;7.23;2.73;;;;;;;23.26;64.64;100065.09;5052260;28;20039;-69
2023/07/12 06:19:25;;;;;;;8.13;2.53;;;;;;;23.19;64.84;100065.44;5046648;28;20021;-73
2023/07/12 06:21:52;;;;;;;10.60;2.60;;;;;;;23.16;65.26;100060.28;5052842;28;20057;-75
2023/07/12 06:24:18;;;;;;;8.40;2.72;;;;;;;23.14;65.26;100055.94;5050697;28;20025;-75
2023/07/12 06:26:43;;;;;;;6.70;2.38;;;;;;;23.11;65.43;100058.81;5045175;28;20043;-74
2023/07/12 06:29:09;;;;;;;11.20;2.77;;;;;;;23.07;65.19;100055.47;5047902;28;20538;-74
2023/07/12 06:31:34;;;;;;;9.60;2.33;;;;;;;23.04;64.89;100061.88;5044985;28;20033;-73
2023/07/12 06:34:03;;;;;;;9.77;2.30;;;;;;;23.02;65.04;100070.97;5037207;28;20034;-71
2023/07/12 06:36:29;;;;;;;7.30;2.10;;;;;;;23.02;65.00;100073.66;5043345;28;20029;-71
2023/07/12 06:38:55;;;;;;;7.35;1.95;;;;;;;22.96;65.22;100079.38;5039098;28;20040;-71
2023/07/12 06:41:20;;;;;;;7.73;2.17;;;;;;;22.93;65.15;100070.56;5043480;28;20029;-70
2023/07/12 06:43:45;;;;;;;7.50;2.10;;;;;;;22.91;64.88;100067.09;5048967;28;20036;-70
2023/07/12 06:46:11;;;;;;;7.40;2.10;;;;;;;22.88;64.50;100061.91;5047912;28;20126;-71
2023/07/12 06:48:36;;;;;;;8.33;2.10;;;;;;;22.88;64.35;100064.59;5038683;28;20056;-71
2023/07/12 06:51:02;;;;;;;8.90;1.93;;;;;;;22.90;64.49;100072.56;5039100;28;20352;-70
2023/07/12 06:53:27;;;;;;;6.50;2.03;;;;;;;22.93;64.48;100070.56;5038756;28;20029;-70
2023/07/12 06:55:54;;;;;;;9.07;2.50;;;;;;;22.96;64.37;100074.03;5049925;28;20052;-70
2023/07/12 06:58:19;;;;;;;14.70;2.07;;;;;;;22.97;64.20;100065.00;5054072;28;20271;-70
2023/07/12 07:00:45;;;;;;;10.73;2.10;;;;;;;23.02;64.12;100069.16;5038812;28;20402;-70
2023/07/12 07:03:12;;;;;;;11.77;2.20;;;;;;;23.08;64.05;100068.78;5038584;28;20037;-70
2023/07/12 07:05:42;;;;;;;6.72;2.00;;;;;;;23.15;63.66;100071.97;5038727;28;20013;-70
2023/07/12 07:08:08;;;;;;;8.13;2.33;;;;;;;23.20;63.40;100075.25;5057164;28;20033;-71
2023/07/12 07:10:34;;;;;;;7.60;2.17;;;;;;;23.27;63.09;100074.91;5050889;28;20447;-71
2023/07/12 07:13:00;;;;;;;9.07;1.92;;;;;;;23.35;63.01;100076.16;5041947;28;20029;-71
2023/07/12 07:15:26;;;;;;;8.50;2.30;;;;;;;23.43;62.84;100075.69;5044334;28;20116;-72
2023/07/12 07:17:52;;;;;;;8.30;2.00;;;;;;;23.48;62.54;100080.81;5054180;28;20140;-70
2023/07/12 07:20:18;;;;;;;7.97;2.10;;;;;;;23.49;62.34;100080.69;5038762;28;20065;-75
2023/07/12 07:22:43;;;;;;;10.20;2.40;;;;;;;23.49;62.08;100078.00;5038236;28;20029;-73
2023/07/12 07:25:09;;;;;;;9.77;2.60;;;;;;;23.49;62.07;100083.38;5043342;28;20397;-73
2023/07/12 07:27:34;;;;;;;8.53;2.17;;;;;;;23.54;62.10;100090.31;5038868;28;20453;-74
2023/07/12 07:30:00;;;;;;;7.93;2.33;;;;;;;23.56;61.85;100089.25;5043464;28;20071;-75
2023/07/12 07:32:25;;;;;;;8.17;2.30;;;;;;;23.59;61.98;100082.84;5044425;28;20036;-76
2023/07/12 07:34:51;;;;;;;10.13;2.37;;;;;;;23.57;61.84;100080.22;5044260;28;20344;-74
2023/07/12 07:37:16;;;;;;;13.43;2.37;;;;;;;23.58;61.88;100086.47;5057100;28;20025;-74
2023/07/12 07:39:42;;;;;;;10.85;3.08;;;;;;;23.58;61.68;100091.84;5057755;28;20082;-74
2023/07/12 07:42:07;;;;;;;8.03;2.13;;;;;;;23.62;61.54;100088.00;5040374;28;20061;-74
2023/07/12 07:44:34;;;;;;;11.73;2.17;;;;;;;23.72;61.44;100089.16;5053959;28;20047;-74
2023/07/12 07:47:00;;;;;;;10.15;2.35;;;;;;;23.85;61.16;100088.41;5040252;28;20527;-74
2023/07/12 07:49:26;;;;;;;8.50;2.40;;;;;;;23.92;60.90;100089.75;5037596;28;20075;-74
2023/07/12 07:51:51;;;;;;;11.63;2.70;;;;;;;23.88;60.84;100085.53;5037491;28;20543;-74
2023/07/12 07:54:17;;;;;;;9.63;2.20;;;;;;;23.92;60.91;100076.28;5037662;28;20112;-74
2023/07/12 07:56:43;;;;;;;7.20;2.30;;;;;;;23.94;61.03;100079.75;5051935;28;20033;-74
2023/07/12 07:59:08;;;;;;;6.88;2.10;;;;;;;23.95;60.65;100078.78;5047407;28;20022;-74
2023/07/12 08:01:34;;;;;;;7.37;2.17;;;;;;;23.99;60.70;100080.31;5037525;28;20025;-74
2023/07/12 08:03:59;;;;;;;9.27;2.15;;;;;;;24.06;60.55;100076.31;5046987;28;20112;-74
2023/07/12 08:06:25;;;;;;;8.30;2.40;;;;;;;24.16;60.23;100081.97;5057363;28;20040;-74
2023/07/12 08:08:52;;;;;;;7.83;2.27;;;;;;;24.22;59.54;100078.91;5052039;28;20452;-74
2023/07/12 08:11:17;;;;;;;8.55;2.70;;;;;;;24.32;59.34;100081.84;5054968;28;20049;-74
2023/07/12 08:13:43;;;;;;;8.47;2.40;;;;;;;24.37;59.37;100079.72;5037284;28;20501;-74
2023/07/12 08:16:08;;;;;;;6.15;2.20;;;;;;;24.40;59.24;100078.66;5043992;28;20460;-74
2023/07/12 08:18:34;;;;;;;9.63;2.93;;;;;;;24.44;59.30;100082.00;5063177;28;20397;-74
2023/07/12 08:21:00;;;;;;;8.48;2.70;;;;;;;24.49;58.74;100082.59;5057040;28;20095;-74
2023/07/12 08:23:27;;;;;;;9.60;2.70;;;;;;;24.54;58.85;100077.75;5056929;28;20501;-74
2023/07/12 08:25:53;;;;;;;11.13;2.92;;;;;;;24.64;58.56;100070.78;5038023;28;20474;-74
2023/07/12 08:28:19;;;;;;;8.60;2.90;;;;;;;24.71;58.53;100068.56;5036130;28;20114;-74
2023/07/12 08:30:44;;;;;;;8.87;3.07;;;;;;;24.64;58.68;100078.88;5036929;28;20275;-74
2023/07/12 08:33:10;;;;;;;7.40;2.55;;;;;;;24.61;58.80;100084.47;5036875;28;20025;-73
2023/07/12 08:35:36;;;;;;;9.33;2.77;;;;;;;24.66;58.81;100082.31;5036931;28;20037;-74
2023/07/12 08:38:02;;;;;;;8.02;2.83;;;;;;;24.70;58.65;100083.00;5037014;28;20059;-74
2023/07/12 08:40:28;;;;;;;15.03;5.33;;;;;;;24.69;58.64;100088.47;5041175;28;20030;-74
2023/07/12 08:42:54;;;;;;;14.95;5.50;;;;;;;24.69;58.75;100089.34;5042044;28;20027;-74
2023/07/12 08:45:25;;;;;;;8.95;3.40;;;;;;;24.69;58.89;100096.53;5047708;28;20033;-74
2023/07/12 08:47:57;;;;;;;8.90;3.40;;;;;;;24.68;58.76;100103.78;5036758;28;20029;-74
2023/07/12 08:50:23;;;;;;;9.50;3.38;;;;;;;24.70;58.64;100100.97;5043807;28;20024;-74
2023/07/12 08:52:48;;;;;;;7.80;2.67;;;;;;;24.74;58.96;100092.59;5056757;28;20520;-74
2023/07/12 08:55:18;;;;;;;8.13;3.17;;;;;;;24.82;58.41;100093.94;5041523;28;20053;-74
2023/07/12 08:57:46;;;;;;;7.93;2.95;;;;;;;24.90;58.84;100099.69;5046127;28;20401;-74
2023/07/12 09:00:22;;;;;;;9.80;2.97;;;;;;;24.95;57.92;100089.47;5046054;28;20404;-74
2023/07/12 09:02:47;;;;;;;9.23;2.80;;;;;;;25.02;58.14;100069.22;5055188;28;20029;-74
2023/07/12 09:05:19;;;;;;;8.63;2.93;;;;;;;25.11;57.53;100067.72;5056601;28;20115;-74
2023/07/12 09:08:11;;;;;;;6.88;2.50;;;;;;;25.14;57.46;100077.44;5056386;28;20021;-74
2023/07/12 09:10:47;;;;;;;9.10;3.05;;;;;;;25.15;57.31;100069.22;5056036;28;20025;-74
2023/07/12 09:13:14;;;;;;;8.15;2.58;;;;;;;25.15;57.28;100074.63;5037092;28;20029;-74
2023/07/12 09:15:50;;;;;;;6.90;2.58;;;;;;;25.18;56.95;100073.56;5044215;28;20025;-74
2023/07/12 09:18:36;;;;;;;5.70;2.57;;;;;;;25.18;57.29;100077.09;5059807;28;20032;-74
2023/07/12 09:21:14;;;;;;;9.27;2.40;;;;;;;25.16;56.57;100078.19;5055013;28;20040;-74
2023/07/12 09:23:42;;;;;;;6.00;2.40;;;;;;;25.16;56.95;100080.88;5056531;28;20104;-74
2023/07/12 09:26:24;;;;;;;10.10;2.75;;;;;;;25.16;56.39;100076.34;5037025;28;20064;-74
2023/07/12 09:28:55;;;;;;;6.53;2.40;;;;;;;25.19;56.94;100080.69;5036608;28;20501;-74
2023/07/12 09:31:23;;;;;;;5.93;2.40;;;;;;;25.16;57.04;100073.66;5036498;28;20533;-74
2023/07/12 09:34:05;;;;;;;9.25;2.78;;;;;;;25.16;56.90;100080.88;5036135;28;20029;-73
2023/07/12 09:36:34;;;;;;;8.27;2.90;;;;;;;25.16;57.14;100092.50;5036588;28;20025;-74
2023/07/12 09:39:02;;;;;;;7.18;2.40;;;;;;;25.14;57.04;100099.00;5038870;28;20396;-74
2023/07/12 09:41:28;;;;;;;6.75;2.50;;;;;;;25.12;57.34;100096.38;5045728;28;20045;-74
2023/07/12 09:43:55;;;;;;;11.90;2.70;;;;;;;25.12;57.26;100096.38;5051645;28;20546;-74
2023/07/12 09:46:44;;;;;;;8.25;2.78;;;;;;;25.08;57.43;100081.41;5048039;28;20029;-74
2023/07/12 09:49:27;;;;;;;8.20;2.40;;;;;;;25.20;56.68;100075.19;5048262;28;20063;-74
2023/07/12 09:52:02;;;;;;;9.20;2.53;;;;;;;25.33;56.64;100068.94;5060049;28;20041;-74
2023/07/12 09:54:33;;;;;;;8.82;2.50;;;;;;;25.47;56.20;100068.88;5051454;28;20068;-74
2023/07/12 09:57:06;;;;;;;7.75;2.05;;;;;;;25.61;55.76;100058.94;5048561;28;20045;-74
2023/07/12 09:59:55;;;;;;;7.70;2.40;;;;;;;25.71;55.12;100068.13;5040172;28;20061;-72
2023/07/12 10:02:28;;;;;;;7.95;2.15;;;;;;;25.84;55.52;100065.41;5046010;28;20021;-73
2023/07/12 10:05:02;;;;;;;8.00;2.17;;;;;;;25.89;55.28;100057.84;5047246;28;20061;-72
2023/07/12 10:07:53;;;;;;;6.68;2.20;;;;;;;25.86;54.92;100062.59;5046441;28;20075;-72
2023/07/12 10:10:34;;;;;;;9.00;2.10;;;;;;;25.86;54.99;100070.69;5050220;28;20029;-72
2023/07/12 10:13:06;;;;;;;13.80;2.83;;;;;;;25.87;55.15;100075.09;5046933;28;20033;-71
2023/07/12 10:15:35;;;;;;;7.20;2.33;;;;;;;25.93;55.11;100074.69;5048494;28;20036;-73
2023/07/12 10:18:03;;;;;;;6.97;2.03;;;;;;;25.97;54.49;100064.50;5060736;28;20037;-71
2023/07/12 10:20:29;;;;;;;8.38;2.30;;;;;;;26.01;54.49;100049.81;5059438;28;20035;-72
2023/07/12 10:22:56;;;;;;;7.03;2.22;;;;;;;26.13;54.45;100042.66;5059475;28;20032;-72
2023/07/12 10:25:30;;;;;;;8.75;2.70;;;;;;;26.27;54.21;100053.34;5047605;28;20033;-71
2023/07/12 10:28:02;;;;;;;5.20;1.70;;;;;;;26.35;53.61;100047.41;5045366;28;20069;-72
2023/07/12 10:30:31;;;;;;;6.60;2.17;;;;;;;26.44;53.60;100052.09;5048713;28;20124;-71
2023/07/12 10:33:15;;;;;;;8.80;2.17;;;;;;;26.45;53.00;100047.56;5048719;28;20021;-71
2023/07/12 10:35:55;;;;;;;6.75;2.38;;;;;;;26.56;52.61;100054.88;5047424;28;20044;-71
2023/07/12 10:38:21;;;;;;;8.30;2.08;;;;;;;26.65;52.85;100056.88;5046865;28;20029;-71
2023/07/12 10:40:58;;;;;;;7.28;2.03;;;;;;;26.71;52.54;100052.84;5048282;28;20032;-71
2023/07/12 10:43:31;;;;;;;6.20;1.70;;;;;;;26.69;52.50;100052.97;5047230;28;20023;-71
2023/07/12 10:46:04;;;;;;;9.68;2.40;;;;;;;26.67;52.10;100062.19;5043581;28;20951;-71
2023/07/12 10:48:31;;;;;;;9.32;2.38;;;;;;;26.57;52.62;100068.25;5040452;28;20103;-71
2023/07/12 10:51:16;;;;;;;10.43;2.30;;;;;;;26.47;52.25;100059.97;5047320;28;20025;-71
2023/07/12 10:53:50;;;;;;;6.45;1.98;;;;;;;26.41;52.99;100059.59;5046474;28;20413;-71
2023/07/12 10:56:18;;;;;;;7.43;2.20;;;;;;;26.35;52.84;100056.34;5045609;28;20053;-72
2023/07/12 10:59:02;;;;;;;8.27;2.40;;;;;;;26.26;52.51;100059.72;5042149;28;20099;-71
2023/07/12 11:01:43;;;;;;;6.63;2.00;;;;;;;26.20;53.04;100071.00;5038560;28;20029;-70
2023/07/12 11:04:11;;;;;;;9.90;2.42;;;;;;;26.14;53.46;100076.78;5038891;28;20060;-71
2023/07/12 11:07:04;;;;;;;6.28;2.03;;;;;;;26.08;53.17;100070.00;5049095;28;20457;-71
2023/07/12 11:09:47;;;;;;;8.03;2.43;;;;;;;25.97;53.69;100065.41;5043985;28;20033;-70
2023/07/12 11:12:14;;;;;;;11.30;2.30;;;;;;;25.89;53.80;100062.38;5047821;28;20037;-70
2023/07/12 11:14:41;;;;;;;8.10;2.03;;;;;;;25.86;53.95;100073.38;5038297;28;20048;-70
2023/07/12 11:17:06;;;;;;;6.57;2.10;;;;;;;25.90;53.72;100075.75;5052320;28;20116;-70
2023/07/12 11:19:36;;;;;;;7.67;2.10;;;;;;;25.98;53.45;100064.41;5058345;28;20048;-70
2023/07/12 11:22:10;;;;;;;6.38;2.28;;;;;;;26.15;53.32;100054.22;5058234;28;20071;-70
2023/07/12 11:25:00;;;;;;;7.47;2.15;;;;;;;26.30;52.96;100060.38;5049408;28;20041;-70
2023/07/12 11:27:32;;;;;;;8.37;1.80;;;;;;;26.47;53.05;100051.88;5041438;28;20398;-71
2023/07/12 11:30:13;;;;;;;6.10;1.90;;;;;;;26.69;51.64;100027.81;5045825;28;20055;-70
2023/07/12 11:32:40;;;;;;;7.40;1.90;;;;;;;26.82;51.84;100044.78;5046156;28;20028;-71